Time;durP1;ratioP1;P1;durP2;ratioP2;P2;SDS_P1;SDS_P2;PMS_P1;PMS_P2;Temp;Humidity;BMP_temperature;BMP_pressure;BME280_temperature;BME280_humidity;BME280_pressure;Samples;Min_cycle;Max_cycle;Signal;HPM_P1;HPM_P2
2023/02/06 00:00:05;;;;;;;33.97;8.77;;;1.00;99.90;;;;;;2616843;54;20558;-77
2023/02/06 00:05:57;;;;;;;31.43;8.17;;;0.90;99.90;;;;;;2616692;54;20399;-76
2023/02/06 00:11:45;;;;;;;33.20;8.70;;;0.70;99.90;;;;;;2616022;54;20435;-77
2023/02/06 00:17:37;;;;;;;27.10;8.07;;;0.80;99.90;;;;;;2615969;54;20158;-77
2023/02/06 00:23:24;;;;;;;26.70;8.60;;;0.50;99.90;;;;;;2615744;54;20940;-77
2023/02/06 00:29:12;;;;;;;16.00;7.30;;;0.30;99.90;;;;;;2616657;54;20130;-78
2023/02/06 00:35:00;;;;;;;27.80;8.23;;;0.20;99.90;;;;;;2616303;54;20138;-76
2023/02/06 00:38:05;;;;;;;26.13;8.47;;;0.30;99.90;;;;;;2615276;47;20416;-77
2023/02/06 00:40:31;;;;;;;16.03;6.73;;;0.40;99.90;;;;;;2615566;47;20154;-77
2023/02/06 00:46:19;;;;;;;19.60;6.70;;;0.20;99.90;;;;;;2615705;54;20374;-77
2023/02/06 00:52:07;;;;;;;23.10;7.43;;;0.10;99.90;;;;;;2617236;31;20882;-77
2023/02/06 00:57:55;;;;;;;24.77;8.73;;;0.00;99.90;;;;;;2617146;54;20174;-77
2023/02/06 01:03:42;;;;;;;31.50;7.73;;;-0.10;99.90;;;;;;2614844;54;20150;-78
2023/02/06 01:09:29;;;;;;;17.10;7.03;;;0.00;99.90;;;;;;2614644;54;20159;-76
2023/02/06 01:15:16;;;;;;;28.50;8.63;;;0.00;99.90;;;;;;2615258;54;20132;-76
2023/02/06 01:21:11;;;;;;;39.40;11.13;;;-0.20;99.90;;;;;;2614726;54;20179;-76
2023/02/06 01:26:58;;;;;;;24.20;8.27;;;-0.30;99.90;;;;;;2615264;54;20391;-77
2023/02/06 01:32:46;;;;;;;19.33;8.30;;;-0.40;99.90;;;;;;2615265;54;20203;-76
2023/02/06 01:42:40;;;;;;;30.53;8.00;;;-0.50;99.90;;;;;;2614143;39;20805;-75
2023/02/06 01:55:13;;;;;;;25.30;8.27;;;-0.50;99.90;;;;;;2614866;54;20404;-76
2023/02/06 02:01:01;;;;;;;21.03;8.83;;;-0.20;99.90;;;;;;2614073;54;20212;-76
2023/02/06 02:13:37;;;;;;;33.47;9.60;;;-0.40;99.90;;;;;;2614693;54;20396;-76
2023/02/06 02:25:57;;;;;;;29.53;11.43;;;-0.40;99.90;;;;;;2613973;54;20391;-77
2023/02/06 02:51:20;;;;;;;31.30;11.10;;;-0.80;99.90;;;;;;2614641;54;20375;-76
2023/02/06 03:03:27;;;;;;;23.10;9.50;;;-0.80;99.90;;;;;;2615854;54;20414;-75
2023/02/06 03:13:49;;;;;;;25.13;9.50;;;-0.70;99.90;;;;;;2615118;54;20477;-76
2023/02/06 03:19:42;;;;;;;24.20;8.23;;;-0.80;99.90;;;;;;2614752;54;20402;-79
2023/02/06 03:25:36;;;;;;;15.30;7.97;;;-0.90;99.90;;;;;;2615280;54;20378;-79
2023/02/06 03:31:31;;;;;;;28.43;9.40;;;-0.60;99.90;;;;;;2614938;54;20371;-76
2023/02/06 03:37:21;;;;;;;31.10;9.87;;;-0.70;99.90;;;;;;2614393;54;20436;-75
2023/02/06 03:43:12;;;;;;;19.90;10.07;;;-0.70;99.90;;;;;;2614920;54;20438;-75
2023/02/06 03:46:31;;;;;;;21.63;8.53;;;-0.90;99.90;;;;;;2615442;47;22422;-76
2023/02/06 03:52:24;;;;;;;26.47;8.93;;;-1.20;99.90;;;;;;2615912;31;20926;-76
2023/02/06 03:58:13;;;;;;;31.47;10.50;;;-1.20;99.90;;;;;;2616477;54;20370;-74
2023/02/06 04:04:02;;;;;;;29.53;9.47;;;-1.00;99.90;;;;;;2614598;54;20939;-75
2023/02/06 04:09:50;;;;;;;23.10;8.77;;;-1.40;99.90;;;;;;2615665;54;20367;-74
2023/02/06 04:15:37;;;;;;;25.77;9.97;;;-1.40;99.90;;;;;;2616471;54;20495;-75
2023/02/06 04:21:25;;;;;;;27.87;10.07;;;-1.40;99.90;;;;;;2614006;54;20149;-76
2023/02/06 04:27:14;;;;;;;32.67;10.93;;;-1.20;99.90;;;;;;2617392;31;20558;-76
2023/02/06 04:33:02;;;;;;;32.07;12.10;;;-1.00;99.90;;;;;;2615959;54;20403;-75
2023/02/06 04:38:50;;;;;;;17.17;8.40;;;-1.20;99.90;;;;;;2616282;54;20185;-75
2023/02/06 04:42:01;;;;;;;30.80;11.50;;;-1.20;99.90;;;;;;2614356;46;20439;-74
2023/02/06 04:44:27;;;;;;;26.47;11.10;;;-1.30;99.90;;;;;;2616534;54;20399;-75
2023/02/06 04:50:18;;;;;;;32.03;9.50;;;-1.40;99.90;;;;;;2615567;54;20126;-75
2023/02/06 04:56:09;;;;;;;15.93;10.30;;;-1.50;99.90;;;;;;2616007;54;20355;-74
2023/02/06 05:01:57;;;;;;;30.77;10.47;;;-1.50;99.90;;;;;;2614246;54;20398;-76
2023/02/06 05:07:44;;;;;;;24.13;10.43;;;-1.40;99.90;;;;;;2616159;54;20122;-74
2023/02/06 05:13:33;;;;;;;25.70;13.10;;;-1.40;99.90;;;;;;2614891;54;20122;-75
2023/02/06 05:19:21;;;;;;;35.17;13.80;;;-1.10;99.90;;;;;;2614117;54;20363;-74
2023/02/06 05:25:09;;;;;;;23.43;11.93;;;-1.00;99.90;;;;;;2616023;54;20146;-75
2023/02/06 05:30:56;;;;;;;23.97;9.83;;;-1.00;99.90;;;;;;2615144;54;20134;-74
2023/02/06 05:36:44;;;;;;;34.00;11.57;;;-1.00;99.90;;;;;;2615106;54;20123;-75
2023/02/06 05:46:34;;;;;;;33.60;11.97;;;-0.90;99.90;;;;;;2615608;54;20375;-74
2023/02/06 05:52:22;;;;;;;30.40;12.87;;;-0.80;99.90;;;;;;2614261;54;20438;-74
2023/02/06 05:58:10;;;;;;;23.83;12.87;;;-0.60;99.90;;;;;;2616193;54;20133;-74
2023/02/06 06:03:58;;;;;;;27.77;12.87;;;-0.60;99.90;;;;;;2615835;54;20998;-75
2023/02/06 06:09:45;;;;;;;33.80;12.80;;;-0.30;99.90;;;;;;2615446;54;20380;-74
2023/02/06 06:15:33;;;;;;;45.37;16.37;;;0.00;99.90;;;;;;2615414;54;20147;-75
2023/02/06 06:21:22;;;;;;;61.50;16.83;;;0.10;99.90;;;;;;2615231;54;20665;-75
2023/02/06 06:27:10;;;;;;;145.03;22.17;;;0.20;99.90;;;;;;2613936;54;20598;-73
2023/02/06 06:32:58;;;;;;;120.03;22.13;;;0.30;99.90;;;;;;2612483;54;20403;-76
2023/02/06 06:38:46;;;;;;;119.70;20.27;;;0.40;99.90;;;;;;2614154;54;20656;-73
2023/02/06 06:42:03;;;;;;;203.20;26.77;;;0.50;99.90;;;;;;2614101;54;20416;-75
2023/02/06 06:44:29;;;;;;;163.93;26.30;;;0.40;99.90;;;;;;2614546;54;20143;-74
2023/02/06 06:50:17;;;;;;;304.80;34.67;;;0.60;99.90;;;;;;2615146;54;20411;-76
2023/02/06 06:56:06;;;;;;;216.93;31.60;;;0.70;99.90;;;;;;2616851;54;20243;-76
2023/02/06 07:01:54;;;;;;;281.13;34.87;;;0.70;99.90;;;;;;2614538;54;20428;-75
2023/02/06 07:07:42;;;;;;;155.17;27.50;;;0.70;99.90;;;;;;2615886;39;20573;-75
2023/02/06 07:13:30;;;;;;;173.53;29.87;;;0.80;99.90;;;;;;2615571;54;20138;-76
2023/02/06 07:19:17;;;;;;;279.03;50.60;;;0.80;99.90;;;;;;2615374;39;20418;-74
2023/02/06 07:25:06;;;;;;;304.33;46.03;;;0.90;99.90;;;;;;2616650;54;20146;-75
2023/02/06 07:30:54;;;;;;;290.77;42.50;;;0.90;99.90;;;;;;2615558;54;20391;-75
2023/02/06 07:36:42;;;;;;;201.90;34.27;;;1.00;99.90;;;;;;2616203;54;20379;-75
2023/02/06 07:46:29;;;;;;;136.40;32.33;;;1.00;99.90;;;;;;2616222;39;20740;-76
2023/02/06 07:52:19;;;;;;;283.87;43.03;;;1.20;99.90;;;;;;2615600;54;20366;-75
2023/02/06 07:58:06;;;;;;;194.23;32.53;;;1.20;99.90;;;;;;2616768;39;20767;-76
2023/02/06 08:03:54;;;;;;;125.77;33.43;;;1.30;99.90;;;;;;2614798;54;20162;-76
2023/02/06 08:09:42;;;;;;;177.90;33.70;;;1.30;99.90;;;;;;2616000;54;20637;-75
2023/02/06 08:13:02;;;;;;;208.43;33.93;;;1.30;99.90;;;;;;2613719;47;20510;-76
2023/02/06 08:15:28;;;;;;;200.17;36.77;;;1.40;99.90;;;;;;2616065;54;20155;-76
2023/02/06 08:21:19;;;;;;;119.17;28.47;;;1.40;99.90;;;;;;2616222;54;20415;-75
2023/02/06 08:27:07;;;;;;;95.60;23.87;;;1.40;99.90;;;;;;2614330;54;20370;-76
2023/02/06 08:32:55;;;;;;;79.40;23.53;;;1.50;99.90;;;;;;2614612;54;20263;-77
2023/02/06 08:38:43;;;;;;;72.53;24.40;;;1.50;99.90;;;;;;2615119;54;20162;-76
2023/02/06 08:42:02;;;;;;;50.90;19.73;;;1.70;99.90;;;;;;2614661;54;20458;-76
2023/02/06 08:44:28;;;;;;;58.77;18.90;;;1.70;99.90;;;;;;2614550;39;20829;-76
2023/02/06 08:47:22;;;;;;;55.13;18.80;;;1.70;99.90;;;;;;2614964;54;20399;-78
2023/02/06 08:49:51;;;;;;;46.23;16.77;;;1.80;99.90;;;;;;2614592;54;20843;-77
2023/02/06 08:55:38;;;;;;;50.40;19.33;;;1.90;99.90;;;;;;2616696;31;20793;-76
2023/02/06 09:01:27;;;;;;;47.63;18.20;;;2.00;99.90;;;;;;2615890;54;20139;-75
2023/02/06 09:07:15;;;;;;;57.53;17.50;;;2.20;99.90;;;;;;2615814;54;20391;-75
2023/02/06 09:13:03;;;;;;;62.57;19.07;;;2.30;99.90;;;;;;2615274;54;20131;-75
2023/02/06 09:18:54;;;;;;;70.90;20.90;;;2.30;99.90;;;;;;2614870;54;20214;-78
2023/02/06 09:24:42;;;;;;;51.97;19.53;;;2.60;99.90;;;;;;2614590;54;20383;-78
2023/02/06 09:30:30;;;;;;;61.67;21.90;;;2.60;99.90;;;;;;2615630;54;20390;-78
2023/02/06 09:36:20;;;;;;;42.43;16.97;;;2.80;99.90;;;;;;2614499;54;20157;-79
2023/02/06 09:42:55;;;;;;;50.57;19.00;;;2.90;99.90;;;;;;2615263;31;20879;-78
2023/02/06 09:48:42;;;;;;;47.57;19.47;;;2.80;99.90;;;;;;2612918;54;20912;-79
2023/02/06 09:54:36;;;;;;;48.43;21.30;;;3.10;99.90;;;;;;2614346;54;20414;-78
2023/02/06 10:00:33;;;;;;;61.80;21.40;;;3.10;99.90;;;;;;2615314;54;20391;-81
2023/02/06 10:06:23;;;;;;;37.70;17.23;;;3.30;99.90;;;;;;2613062;54;20386;-79
2023/02/06 10:09:10;;;;;;;33.00;16.17;;;3.60;99.90;;;;;;2615164;54;20470;-78
2023/02/06 10:31:27;;;;;;;33.87;14.47;;;4.20;99.90;;;;;;2615474;54;20956;-78
2023/02/06 10:53:31;;;;;;;17.50;9.50;;;6.30;99.90;;;;;;2615031;54;20394;-77
2023/02/06 10:56:19;;;;;;;17.30;9.10;;;6.20;99.90;;;;;;2616473;54;20445;-77
2023/02/06 11:02:38;;;;;;;15.10;10.33;;;6.10;99.90;;;;;;2613168;54;20422;-78
2023/02/06 11:05:09;;;;;;;18.80;10.50;;;5.70;99.90;;;;;;2614290;39;20560;-78
2023/02/06 11:10:56;;;;;;;21.23;9.70;;;5.20;99.90;;;;;;2613924;54;20391;-78
2023/02/06 11:16:45;;;;;;;15.43;9.20;;;5.50;99.90;;;;;;2613657;54;20379;-76
2023/02/06 11:22:32;;;;;;;13.90;9.50;;;5.00;99.90;;;;;;2612423;54;20408;-77
2023/02/06 11:28:23;;;;;;;20.87;10.80;;;5.40;99.90;;;;;;2614269;46;20225;-77
2023/02/06 11:47:37;;;;;;;18.37;11.87;;;5.00;99.90;;;;;;2614298;54;20394;-76
2023/02/06 11:53:25;;;;;;;15.93;10.20;;;5.20;99.90;;;;;;2614117;54;20155;-76
2023/02/06 11:59:21;;;;;;;21.07;12.93;;;5.10;99.90;;;;;;2615862;54;20647;-76
2023/02/06 12:05:15;;;;;;;30.77;16.13;;;5.30;99.90;;;;;;2613994;54;20395;-76
2023/02/06 12:11:05;;;;;;;30.30;16.10;;;5.20;99.90;;;;;;2613552;54;20378;-76
2023/02/06 12:20:22;;;;;;;34.50;17.63;;;5.10;99.90;;;;;;2616417;39;20831;-76
2023/02/06 12:26:13;;;;;;;32.70;18.83;;;4.90;99.90;;;;;;2614877;54;20387;-77
2023/02/06 12:32:13;;;;;;;45.77;21.10;;;5.10;99.90;;;;;;2615177;54;20519;-76
2023/02/06 12:38:10;;;;;;;28.03;16.40;;;5.40;99.90;;;;;;2614200;54;20504;-78
2023/02/06 12:54:12;;;;;;;21.53;15.00;;;5.10;99.90;;;;;;2613010;54;20488;-78
2023/02/06 13:00:37;;;;;;;28.23;17.03;;;5.30;99.90;;;;;;2613445;54;20433;-78
2023/02/06 13:16:07;;;;;;;22.03;14.07;;;6.00;99.90;;;;;;2615481;39;20862;-78
2023/02/06 13:22:07;;;;;;;27.17;15.10;;;5.90;99.90;;;;;;2614104;54;20386;-80
2023/02/06 13:27:56;;;;;;;27.73;13.60;;;5.80;99.90;;;;;;2614875;54;20399;-78
2023/02/06 13:33:50;;;;;;;40.60;19.10;;;6.00;99.90;;;;;;2613851;54;20559;-78
2023/02/06 13:39:38;;;;;;;23.53;14.07;;;10.80;99.90;;;;;;2615937;54;20512;-79
2023/02/06 13:42:41;;;;;;;18.70;11.80;;;13.10;99.90;;;;;;2613683;47;20415;-78
2023/02/06 14:01:33;;;;;;;34.33;15.50;;;6.80;99.90;;;;;;2614719;54;20423;-76
2023/02/06 14:03:59;;;;;;;36.63;16.63;;;6.90;99.90;;;;;;2613345;54;20562;-77
2023/02/06 14:42:42;;;;;;;40.27;23.70;;;6.00;99.90;;;;;;2613909;54;20967;-76
2023/02/06 14:48:33;;;;;;;48.93;23.60;;;6.10;99.90;;;;;;2614139;54;20391;-77
2023/02/06 14:54:31;;;;;;;33.07;20.17;;;6.20;99.90;;;;;;2614135;54;20550;-77
2023/02/06 15:00:19;;;;;;;45.73;23.60;;;6.10;99.90;;;;;;2613407;54;20511;-77
2023/02/06 15:12:35;;;;;;;38.17;23.33;;;6.20;99.90;;;;;;2614783;54;20382;-76
2023/02/06 15:18:24;;;;;;;29.40;15.40;;;6.40;99.90;;;;;;2615072;54;20422;-76
2023/02/06 15:30:51;;;;;;;16.50;9.60;;;6.20;99.90;;;;;;2616053;54;20382;-76
2023/02/06 15:36:39;;;;;;;17.17;11.13;;;6.10;99.90;;;;;;2615733;46;20433;-78
2023/02/06 15:42:30;;;;;;;18.53;12.17;;;6.00;99.90;;;;;;2615193;54;20138;-76
2023/02/06 16:01:25;;;;;;;17.43;11.00;;;5.80;99.90;;;;;;2613790;54;20404;-76
2023/02/06 16:07:17;;;;;;;21.97;11.43;;;5.70;99.90;;;;;;2614710;54;21017;-77
2023/02/06 16:13:14;;;;;;;29.67;12.00;;;5.50;99.90;;;;;;2614756;54;20522;-77
2023/02/06 16:39:03;;;;;;;19.63;10.87;;;4.70;99.90;;;;;;2615111;54;20433;-76
2023/02/06 16:44:58;;;;;;;21.03;10.30;;;4.80;99.90;;;;;;2615237;54;20426;-76
2023/02/06 16:50:47;;;;;;;12.97;8.50;;;4.60;99.90;;;;;;2614357;54;20378;-75
2023/02/06 16:56:37;;;;;;;30.60;10.97;;;4.50;99.90;;;;;;2614231;54;20474;-77
2023/02/06 17:02:26;;;;;;;20.33;10.17;;;4.60;99.90;;;;;;2614195;54;20414;-76
2023/02/06 17:08:22;;;;;;;19.93;10.93;;;4.70;99.90;;;;;;2613512;54;21043;-76
2023/02/06 17:14:10;;;;;;;16.77;10.20;;;4.70;99.90;;;;;;2616594;54;20554;-76
2023/02/06 17:19:58;;;;;;;19.83;10.07;;;4.90;99.90;;;;;;2615717;54;20414;-76
2023/02/06 17:25:46;;;;;;;15.37;9.17;;;4.90;99.90;;;;;;2615485;54;20139;-76
2023/02/06 17:31:33;;;;;;;21.07;9.90;;;4.90;99.90;;;;;;2616091;54;20127;-77
2023/02/06 17:37:21;;;;;;;15.90;9.80;;;4.90;99.90;;;;;;2615971;54;20643;-77
2023/02/06 17:47:21;;;;;;;18.83;9.07;;;4.70;99.90;;;;;;2616660;54;20380;-75
2023/02/06 17:53:12;;;;;;;17.40;9.53;;;4.30;99.90;;;;;;2616475;54;20464;-77
2023/02/06 17:59:00;;;;;;;20.30;10.93;;;4.10;99.90;;;;;;2615627;54;20963;-77
2023/02/06 18:04:51;;;;;;;19.37;11.30;;;3.90;99.90;;;;;;2615265;54;21223;-77
2023/02/06 18:10:39;;;;;;;25.70;9.93;;;3.80;99.90;;;;;;2616498;39;20771;-76
2023/02/06 18:16:28;;;;;;;22.67;10.73;;;3.70;99.90;;;;;;2616150;54;20680;-76
2023/02/06 18:22:18;;;;;;;16.37;10.53;;;3.60;99.90;;;;;;2615024;54;20415;-75
2023/02/06 18:28:06;;;;;;;20.73;11.80;;;3.30;99.90;;;;;;2616293;54;20395;-77
2023/02/06 18:33:56;;;;;;;19.27;10.97;;;3.00;99.90;;;;;;2616237;39;20847;-76
2023/02/06 18:39:43;;;;;;;18.77;11.87;;;2.70;99.90;;;;;;2615575;54;20379;-76
2023/02/06 18:42:53;;;;;;;31.13;12.90;;;2.50;99.90;;;;;;2615898;54;20411;-76
2023/02/06 18:45:24;;;;;;;22.87;12.83;;;2.40;99.90;;;;;;2616969;54;20740;-75
2023/02/06 18:51:12;;;;;;;23.47;11.60;;;2.30;99.90;;;;;;2615756;54;20403;-76
2023/02/06 18:57:00;;;;;;;23.60;11.70;;;2.20;99.90;;;;;;2616716;54;20174;-77
2023/02/06 19:02:49;;;;;;;21.80;14.40;;;2.60;99.90;;;;;;2616342;54;20416;-76
2023/02/06 19:08:37;;;;;;;41.37;19.80;;;2.60;99.90;;;;;;2616311;54;20395;-76
2023/02/06 19:11:21;;;;;;;46.07;22.70;;;2.60;99.90;;;;;;2615387;54;20394;-78
2023/02/06 19:13:47;;;;;;;26.33;18.40;;;2.40;99.90;;;;;;2615150;47;20170;-77
2023/02/06 19:19:35;;;;;;;29.63;18.27;;;2.20;99.90;;;;;;2616268;54;20166;-77
2023/02/06 19:25:23;;;;;;;35.17;18.83;;;1.90;99.90;;;;;;2616423;54;20147;-76
2023/02/06 19:31:12;;;;;;;29.90;17.93;;;1.50;99.90;;;;;;2616302;54;20133;-75
2023/02/06 19:36:59;;;;;;;31.23;18.40;;;1.40;99.90;;;;;;2616195;54;20371;-76
2023/02/06 19:42:47;;;;;;;34.60;18.90;;;1.20;99.90;;;;;;2616064;54;20777;-77
2023/02/06 19:48:35;;;;;;;33.97;19.90;;;1.10;99.90;;;;;;2616091;54;20130;-77
2023/02/06 19:54:23;;;;;;;28.60;18.57;;;0.90;99.90;;;;;;2616061;54;20145;-76
2023/02/06 20:00:12;;;;;;;26.77;17.13;;;1.00;99.90;;;;;;2616081;54;20625;-76
2023/02/06 20:06:01;;;;;;;30.20;17.90;;;0.80;99.90;;;;;;2615818;54;20469;-76
2023/02/06 20:11:50;;;;;;;28.77;18.63;;;0.70;99.90;;;;;;2615114;54;20391;-76
2023/02/06 20:17:37;;;;;;;30.57;19.00;;;0.60;99.90;;;;;;2616566;39;20778;-76
2023/02/06 20:23:25;;;;;;;40.67;20.70;;;0.50;99.90;;;;;;2617102;39;20523;-75
2023/02/06 20:29:26;;;;;;;34.77;18.60;;;0.50;99.90;;;;;;2616094;54;20266;-77
2023/02/06 20:35:14;;;;;;;26.50;17.77;;;0.40;99.90;;;;;;2615887;54;20378;-76
2023/02/06 20:41:03;;;;;;;38.93;19.40;;;0.30;99.90;;;;;;2616433;54;20122;-77
2023/02/06 20:46:51;;;;;;;32.07;19.50;;;0.30;99.90;;;;;;2616411;54;20391;-75
2023/02/06 20:52:40;;;;;;;28.53;18.87;;;0.30;99.90;;;;;;2615489;54;20138;-75
2023/02/06 20:58:28;;;;;;;34.37;19.37;;;0.40;99.90;;;;;;2614876;54;20496;-76
2023/02/06 21:04:17;;;;;;;38.87;20.87;;;0.80;99.90;;;;;;2613765;54;20468;-76
2023/02/06 21:10:06;;;;;;;46.60;24.17;;;0.80;99.90;;;;;;2615238;54;20395;-78
2023/02/06 21:15:56;;;;;;;42.00;22.27;;;1.00;99.90;;;;;;2615760;54;20370;-76
2023/02/06 21:21:44;;;;;;;36.00;23.83;;;0.70;99.90;;;;;;2615960;54;20383;-76
2023/02/06 21:27:32;;;;;;;39.90;24.97;;;0.40;99.90;;;;;;2616421;54;20139;-78
2023/02/06 21:33:19;;;;;;;53.83;30.27;;;0.40;99.90;;;;;;2615882;54;20427;-76
2023/02/06 21:39:08;;;;;;;40.20;24.20;;;0.60;99.90;;;;;;2616284;54;20154;-75
2023/02/06 21:48:24;;;;;;;37.50;21.53;;;0.60;99.90;;;;;;2611493;54;20439;-79
2023/02/06 21:54:13;;;;;;;42.87;21.97;;;0.60;99.90;;;;;;2614133;54;20386;-79
2023/02/06 22:00:00;;;;;;;38.03;21.93;;;0.70;99.90;;;;;;2611180;54;20146;-78
2023/02/06 22:05:48;;;;;;;44.13;22.33;;;0.90;99.90;;;;;;2613936;54;20138;-78
2023/02/06 22:11:39;;;;;;;38.90;22.57;;;1.00;99.90;;;;;;2614519;54;20122;-78
2023/02/06 22:17:28;;;;;;;45.23;24.63;;;0.90;99.90;;;;;;2615367;54;20432;-78
2023/02/06 22:23:15;;;;;;;44.17;23.03;;;1.00;99.90;;;;;;2615454;54;20920;-80
2023/02/06 22:29:06;;;;;;;39.37;23.40;;;0.80;99.90;;;;;;2614577;54;20254;-76
2023/02/06 22:34:57;;;;;;;48.53;21.67;;;0.80;99.90;;;;;;2615432;54;20387;-76
2023/02/06 22:40:45;;;;;;;39.37;23.77;;;0.80;99.90;;;;;;2615307;39;20784;-75
2023/02/06 22:43:49;;;;;;;41.77;24.67;;;0.70;99.90;;;;;;2614441;54;20424;-76
2023/02/06 22:46:22;;;;;;;41.13;22.43;;;0.70;99.90;;;;;;2613872;47;20217;-76
2023/02/06 22:53:28;;;;;;;37.60;23.33;;;0.60;99.90;;;;;;2613958;54;20415;-76
2023/02/06 22:58:17;;;;;;;35.10;21.33;;;0.40;99.90;;;;;;2612343;54;20402;-76
2023/02/06 23:01:21;;;;;;;40.97;21.47;;;0.40;99.90;;;;;;2613865;47;20403;-76
2023/02/06 23:03:50;;;;;;;38.00;22.63;;;0.30;99.90;;;;;;2611035;47;20225;-75
2023/02/06 23:09:38;;;;;;;34.43;19.67;;;0.20;99.90;;;;;;2614777;54;20378;-77
2023/02/06 23:15:26;;;;;;;35.37;20.50;;;-0.10;99.90;;;;;;2615399;54;20362;-75
2023/02/06 23:21:17;;;;;;;38.97;22.63;;;-0.40;99.90;;;;;;2611677;39;20513;-75
2023/02/06 23:27:05;;;;;;;35.70;21.63;;;-0.70;99.90;;;;;;2615031;54;20405;-76
2023/02/06 23:32:53;;;;;;;34.07;19.70;;;-0.70;99.90;;;;;;2615178;39;20445;-76
2023/02/06 23:38:42;;;;;;;40.93;21.87;;;-0.70;99.90;;;;;;2615849;54;20133;-75
2023/02/06 23:54:46;;;;;;;40.10;20.00;;;-0.60;99.90;;;;;;2614780;54;20363;-74
